Portada
METAR-TAF:

METAR-TAF

Aeroports :

Simla, Índia

latitud: 31-04-54N, longitud: 77-04-05E, altitud: 1546 m

METAR: manca

Hora: 05:37 (00:07 UTC)

Pronòstic

L'informe es va fer fa 19 hores i 7 minuts, a les 05:00 UTC
Pronòstic vàlid del 21 a les 06 UTC al 21 a les 15 UTC
Vent 2 kt amb direcció variable
Visibilitat: 6000 m
Escasses núvols a una alçada de 3000 ft
Núvols disperses a una alçada de 8000 ft
Evolucionant progressivament
l' 21 a les 12 UTC al 21 a les 14 UTC
Visibilitat: 3500 m
Escasses núvols a una alçada de 1500 ft
Núvols disperses a una alçada de 2500 ft
Cel ennuvolat a una alçada de 8000 ft
calitja, boirina

TAF: VISM 210500Z 2106/2115 VRB02KT 6000 FEW030 SCT080 BECMG 2112/2114 3500 HZ BR FEW015 SCT025 BKN080

Observacions i pronòstics meteorològics de més de 4000 aeroports (METAR i TAF).

Les estacions disponibles són els punts grocs i vermells al mapa.

Posi el ratolí al punt desitjat per veure el nom de l'estació.

Feu clic per veure les observacions i els pronòstics meteorològics.

Per canviar el mapa: feu clic els botons verds amb una creu de color negre per apropar; al botó verd amb un guió per allunyar la imatge; o en les fletxes verdes per a mapes adjacents.


METAR-TAF: